sensor_id;sensor_type;location;lat;lon;timestamp;P1;durP1;ratioP1;P2;durP2;ratioP2
10166;SDS011;62970;53.130;8.244;2023-05-10T00:00:41;7.63;;;7.03;;
10166;SDS011;62970;53.130;8.244;2023-05-10T00:03:11;7.43;;;6.83;;
10166;SDS011;62970;53.130;8.244;2023-05-10T00:05:43;7.17;;;6.47;;
10166;SDS011;62970;53.130;8.244;2023-05-10T00:08:12;7.17;;;6.53;;
10166;SDS011;62970;53.130;8.244;2023-05-10T00:10:42;7.37;;;6.67;;
10166;SDS011;62970;53.130;8.244;2023-05-10T00:13:13;7.37;;;6.70;;
10166;SDS011;62970;53.130;8.244;2023-05-10T00:15:43;6.67;;;6.17;;
10166;SDS011;62970;53.130;8.244;2023-05-10T00:18:15;7.90;;;7.23;;
10166;SDS011;62970;53.130;8.244;2023-05-10T00:20:48;7.03;;;6.43;;
10166;SDS011;62970;53.130;8.244;2023-05-10T00:23:17;6.90;;;6.40;;
10166;SDS011;62970;53.130;8.244;2023-05-10T00:25:47;6.70;;;6.13;;
10166;SDS011;62970;53.130;8.244;2023-05-10T00:28:16;7.07;;;6.47;;
10166;SDS011;62970;53.130;8.244;2023-05-10T00:30:45;6.83;;;6.33;;
10166;SDS011;62970;53.130;8.244;2023-05-10T00:33:15;6.70;;;6.20;;
10166;SDS011;62970;53.130;8.244;2023-05-10T00:35:44;7.10;;;6.60;;
10166;SDS011;62970;53.130;8.244;2023-05-10T00:38:17;6.20;;;5.70;;
10166;SDS011;62970;53.130;8.244;2023-05-10T00:40:47;6.50;;;6.00;;
10166;SDS011;62970;53.130;8.244;2023-05-10T00:43:16;5.77;;;5.30;;
10166;SDS011;62970;53.130;8.244;2023-05-10T00:45:46;6.53;;;5.93;;
10166;SDS011;62970;53.130;8.244;2023-05-10T00:48:16;5.77;;;5.30;;
10166;SDS011;62970;53.130;8.244;2023-05-10T00:50:49;6.10;;;5.50;;
10166;SDS011;62970;53.130;8.244;2023-05-10T00:53:19;5.23;;;4.73;;
10166;SDS011;62970;53.130;8.244;2023-05-10T00:55:48;5.50;;;5.10;;
10166;SDS011;62970;53.130;8.244;2023-05-10T00:58:18;5.60;;;5.20;;
10166;SDS011;62970;53.130;8.244;2023-05-10T01:00:49;5.40;;;4.90;;
10166;SDS011;62970;53.130;8.244;2023-05-10T01:03:18;5.20;;;4.80;;
10166;SDS011;62970;53.130;8.244;2023-05-10T01:05:51;6.60;;;4.80;;
10166;SDS011;62970;53.130;8.244;2023-05-10T01:08:21;5.30;;;4.90;;
10166;SDS011;62970;53.130;8.244;2023-05-10T01:10:50;5.07;;;4.67;;
10166;SDS011;62970;53.130;8.244;2023-05-10T01:13:23;5.30;;;4.80;;
10166;SDS011;62970;53.130;8.244;2023-05-10T01:16:01;5.20;;;4.80;;
10166;SDS011;62970;53.130;8.244;2023-05-10T01:18:31;5.60;;;5.10;;
10166;SDS011;62970;53.130;8.244;2023-05-10T01:21:15;5.10;;;4.70;;
10166;SDS011;62970;53.130;8.244;2023-05-10T01:27:32;6.47;;;5.47;;
10166;SDS011;62970;53.130;8.244;2023-05-10T01:33:50;6.40;;;5.90;;
10166;SDS011;62970;53.130;8.244;2023-05-10T01:36:29;6.97;;;6.37;;
10166;SDS011;62970;53.130;8.244;2023-05-10T01:39:05;6.37;;;5.87;;
10166;SDS011;62970;53.130;8.244;2023-05-10T01:41:48;5.77;;;5.30;;
10166;SDS011;62970;53.130;8.244;2023-05-10T01:44:24;5.83;;;5.37;;
10166;SDS011;62970;53.130;8.244;2023-05-10T01:47:04;6.60;;;6.10;;
10166;SDS011;62970;53.130;8.244;2023-05-10T01:49:41;6.50;;;6.00;;
10166;SDS011;62970;53.130;8.244;2023-05-10T01:52:16;6.20;;;5.70;;
10166;SDS011;62970;53.130;8.244;2023-05-10T01:54:56;5.77;;;5.37;;
10166;SDS011;62970;53.130;8.244;2023-05-10T01:57:33;6.10;;;5.60;;
10166;SDS011;62970;53.130;8.244;2023-05-10T02:00:06;6.20;;;5.60;;
10166;SDS011;62970;53.130;8.244;2023-05-10T02:02:38;5.37;;;4.93;;
10166;SDS011;62970;53.130;8.244;2023-05-10T02:05:14;6.07;;;5.60;;
10166;SDS011;62970;53.130;8.244;2023-05-10T02:07:48;5.70;;;5.27;;
10166;SDS011;62970;53.130;8.244;2023-05-10T02:10:19;5.47;;;5.07;;
10166;SDS011;62970;53.130;8.244;2023-05-10T02:12:51;5.70;;;5.20;;
10166;SDS011;62970;53.130;8.244;2023-05-10T02:15:25;5.83;;;5.40;;
10166;SDS011;62970;53.130;8.244;2023-05-10T02:17:56;5.97;;;5.40;;
10166;SDS011;62970;53.130;8.244;2023-05-10T02:20:30;6.20;;;5.70;;
10166;SDS011;62970;53.130;8.244;2023-05-10T02:23:01;5.67;;;5.27;;
10166;SDS011;62970;53.130;8.244;2023-05-10T02:25:33;5.23;;;4.83;;
10166;SDS011;62970;53.130;8.244;2023-05-10T02:28:04;5.80;;;5.40;;
10166;SDS011;62970;53.130;8.244;2023-05-10T02:30:35;5.80;;;5.30;;
10166;SDS011;62970;53.130;8.244;2023-05-10T02:33:06;5.80;;;5.30;;
10166;SDS011;62970;53.130;8.244;2023-05-10T02:35:39;6.10;;;5.60;;
10166;SDS011;62970;53.130;8.244;2023-05-10T02:38:09;5.90;;;5.50;;
10166;SDS011;62970;53.130;8.244;2023-05-10T02:40:41;6.00;;;5.50;;
10166;SDS011;62970;53.130;8.244;2023-05-10T02:43:13;5.57;;;5.10;;
10166;SDS011;62970;53.130;8.244;2023-05-10T02:45:46;5.93;;;5.43;;
10166;SDS011;62970;53.130;8.244;2023-05-10T02:48:16;6.30;;;5.80;;
10166;SDS011;62970;53.130;8.244;2023-05-10T02:50:48;5.73;;;5.20;;
10166;SDS011;62970;53.130;8.244;2023-05-10T02:53:23;5.83;;;5.40;;
10166;SDS011;62970;53.130;8.244;2023-05-10T02:56:00;5.60;;;5.10;;
10166;SDS011;62970;53.130;8.244;2023-05-10T02:58:34;5.77;;;5.37;;
10166;SDS011;62970;53.130;8.244;2023-05-10T03:01:04;6.03;;;5.53;;
10166;SDS011;62970;53.130;8.244;2023-05-10T03:03:33;7.63;;;6.13;;
10166;SDS011;62970;53.130;8.244;2023-05-10T03:06:06;7.10;;;6.50;;
10166;SDS011;62970;53.130;8.244;2023-05-10T03:08:35;7.00;;;6.30;;
10166;SDS011;62970;53.130;8.244;2023-05-10T03:11:09;6.40;;;5.90;;
10166;SDS011;62970;53.130;8.244;2023-05-10T03:13:59;7.10;;;6.40;;
10166;SDS011;62970;53.130;8.244;2023-05-10T03:16:40;7.27;;;6.67;;
10166;SDS011;62970;53.130;8.244;2023-05-10T03:19:16;7.13;;;6.53;;
10166;SDS011;62970;53.130;8.244;2023-05-10T03:21:55;7.80;;;7.20;;
10166;SDS011;62970;53.130;8.244;2023-05-10T03:24:32;7.60;;;7.00;;
10166;SDS011;62970;53.130;8.244;2023-05-10T03:27:05;7.90;;;7.20;;
10166;SDS011;62970;53.130;8.244;2023-05-10T03:29:36;7.33;;;6.73;;
10166;SDS011;62970;53.130;8.244;2023-05-10T03:32:06;7.73;;;7.10;;
10166;SDS011;62970;53.130;8.244;2023-05-10T03:34:40;7.33;;;6.73;;
10166;SDS011;62970;53.130;8.244;2023-05-10T03:37:13;7.17;;;6.57;;
10166;SDS011;62970;53.130;8.244;2023-05-10T03:39:42;7.20;;;6.60;;
10166;SDS011;62970;53.130;8.244;2023-05-10T03:42:12;7.20;;;6.57;;
10166;SDS011;62970;53.130;8.244;2023-05-10T03:44:43;7.33;;;6.63;;
10166;SDS011;62970;53.130;8.244;2023-05-10T03:47:14;7.30;;;6.70;;
10166;SDS011;62970;53.130;8.244;2023-05-10T03:49:43;7.37;;;6.77;;
10166;SDS011;62970;53.130;8.244;2023-05-10T03:52:18;7.57;;;6.97;;
10166;SDS011;62970;53.130;8.244;2023-05-10T03:54:48;7.40;;;6.70;;
10166;SDS011;62970;53.130;8.244;2023-05-10T03:57:17;7.67;;;6.93;;
10166;SDS011;62970;53.130;8.244;2023-05-10T03:59:46;7.50;;;6.87;;
10166;SDS011;62970;53.130;8.244;2023-05-10T04:02:15;7.33;;;6.73;;
10166;SDS011;62970;53.130;8.244;2023-05-10T04:04:45;7.57;;;6.87;;
10166;SDS011;62970;53.130;8.244;2023-05-10T04:07:14;6.77;;;6.27;;
10166;SDS011;62970;53.130;8.244;2023-05-10T04:09:46;8.50;;;7.10;;
10166;SDS011;62970;53.130;8.244;2023-05-10T04:12:16;6.53;;;6.00;;
10166;SDS011;62970;53.130;8.244;2023-05-10T04:14:45;4.77;;;4.40;;
10166;SDS011;62970;53.130;8.244;2023-05-10T04:17:14;4.23;;;3.93;;
10166;SDS011;62970;53.130;8.244;2023-05-10T04:19:44;4.17;;;3.87;;
10166;SDS011;62970;53.130;8.244;2023-05-10T04:22:13;3.53;;;3.30;;
10166;SDS011;62970;53.130;8.244;2023-05-10T04:24:46;4.03;;;3.73;;
10166;SDS011;62970;53.130;8.244;2023-05-10T04:27:15;3.50;;;3.30;;
10166;SDS011;62970;53.130;8.244;2023-05-10T04:29:45;3.97;;;3.67;;
10166;SDS011;62970;53.130;8.244;2023-05-10T04:32:14;3.50;;;3.20;;
10166;SDS011;62970;53.130;8.244;2023-05-10T04:34:45;3.50;;;3.20;;
10166;SDS011;62970;53.130;8.244;2023-05-10T04:37:15;3.90;;;3.50;;
10166;SDS011;62970;53.130;8.244;2023-05-10T04:39:49;4.13;;;3.80;;
10166;SDS011;62970;53.130;8.244;2023-05-10T04:42:18;4.00;;;3.70;;
10166;SDS011;62970;53.130;8.244;2023-05-10T04:44:47;4.53;;;4.17;;
10166;SDS011;62970;53.130;8.244;2023-05-10T04:47:17;3.67;;;3.37;;
10166;SDS011;62970;53.130;8.244;2023-05-10T04:49:49;4.03;;;3.73;;
10166;SDS011;62970;53.130;8.244;2023-05-10T04:52:19;4.50;;;4.10;;
10166;SDS011;62970;53.130;8.244;2023-05-10T04:54:53;5.23;;;4.83;;
10166;SDS011;62970;53.130;8.244;2023-05-10T04:57:22;4.40;;;4.10;;
10166;SDS011;62970;53.130;8.244;2023-05-10T04:59:51;4.53;;;4.10;;
10166;SDS011;62970;53.130;8.244;2023-05-10T05:02:21;3.90;;;3.60;;
10166;SDS011;62970;53.130;8.244;2023-05-10T05:04:50;4.07;;;3.77;;
10166;SDS011;62970;53.130;8.244;2023-05-10T05:07:20;3.77;;;3.47;;
10166;SDS011;62970;53.130;8.244;2023-05-10T05:09:52;3.13;;;2.93;;
10166;SDS011;62970;53.130;8.244;2023-05-10T05:12:21;2.60;;;2.40;;
10166;SDS011;62970;53.130;8.244;2023-05-10T05:14:51;2.50;;;2.37;;
10166;SDS011;62970;53.130;8.244;2023-05-10T05:17:20;2.10;;;2.00;;
10166;SDS011;62970;53.130;8.244;2023-05-10T05:19:49;2.30;;;1.73;;
10166;SDS011;62970;53.130;8.244;2023-05-10T05:22:19;2.03;;;1.60;;
10166;SDS011;62970;53.130;8.244;2023-05-10T05:24:55;1.87;;;1.77;;
10166;SDS011;62970;53.130;8.244;2023-05-10T05:27:27;1.93;;;1.83;;
10166;SDS011;62970;53.130;8.244;2023-05-10T05:29:57;2.00;;;1.90;;
10166;SDS011;62970;53.130;8.244;2023-05-10T05:32:27;2.20;;;2.10;;
10166;SDS011;62970;53.130;8.244;2023-05-10T05:34:56;2.57;;;2.37;;
10166;SDS011;62970;53.130;8.244;2023-05-10T05:37:26;2.73;;;2.53;;
10166;SDS011;62970;53.130;8.244;2023-05-10T05:40:00;2.60;;;2.40;;
10166;SDS011;62970;53.130;8.244;2023-05-10T05:42:30;2.70;;;2.50;;
10166;SDS011;62970;53.130;8.244;2023-05-10T05:45:00;3.50;;;2.80;;
10166;SDS011;62970;53.130;8.244;2023-05-10T05:47:30;3.17;;;2.97;;
10166;SDS011;62970;53.130;8.244;2023-05-10T05:50:03;3.30;;;2.93;;
10166;SDS011;62970;53.130;8.244;2023-05-10T05:52:34;3.57;;;3.27;;
10166;SDS011;62970;53.130;8.244;2023-05-10T05:55:07;3.40;;;3.20;;
10166;SDS011;62970;53.130;8.244;2023-05-10T05:57:36;5.83;;;3.40;;
10166;SDS011;62970;53.130;8.244;2023-05-10T06:00:07;3.50;;;3.20;;
10166;SDS011;62970;53.130;8.244;2023-05-10T06:02:37;3.50;;;3.20;;
10166;SDS011;62970;53.130;8.244;2023-05-10T06:05:07;3.77;;;3.47;;
10166;SDS011;62970;53.130;8.244;2023-05-10T06:07:39;3.70;;;3.40;;
10166;SDS011;62970;53.130;8.244;2023-05-10T06:10:11;3.90;;;3.60;;
10166;SDS011;62970;53.130;8.244;2023-05-10T06:12:41;3.83;;;3.53;;
10166;SDS011;62970;53.130;8.244;2023-05-10T06:15:10;3.97;;;3.67;;
10166;SDS011;62970;53.130;8.244;2023-05-10T06:17:40;4.30;;;4.00;;
10166;SDS011;62970;53.130;8.244;2023-05-10T06:20:10;4.23;;;3.93;;
10166;SDS011;62970;53.130;8.244;2023-05-10T06:22:41;4.23;;;3.93;;
10166;SDS011;62970;53.130;8.244;2023-05-10T06:25:13;4.23;;;3.93;;
10166;SDS011;62970;53.130;8.244;2023-05-10T06:27:43;4.70;;;4.30;;
10166;SDS011;62970;53.130;8.244;2023-05-10T06:30:13;4.70;;;4.30;;
10166;SDS011;62970;53.130;8.244;2023-05-10T06:32:46;4.60;;;4.30;;
10166;SDS011;62970;53.130;8.244;2023-05-10T06:35:16;4.80;;;4.40;;
10166;SDS011;62970;53.130;8.244;2023-05-10T06:37:46;4.17;;;3.87;;
